createdAt,value
2023-03-06T00:01:08.568Z,11.63
2023-03-06T00:04:10.333Z,11.52
2023-03-06T00:07:11.972Z,11.18
2023-03-06T00:10:16.380Z,10.80
2023-03-06T00:13:19.229Z,12.63
2023-03-06T00:16:20.855Z,11.85
2023-03-06T00:19:23.402Z,11.50
2023-03-06T00:22:24.981Z,12.00
2023-03-06T00:25:26.621Z,12.57
2023-03-06T00:28:30.992Z,12.57
2023-03-06T00:31:33.102Z,12.85
2023-03-06T00:34:34.835Z,12.82
2023-03-06T00:37:36.711Z,12.15
2023-03-06T00:40:38.337Z,11.70
2023-03-06T00:43:40.246Z,12.60
2023-03-06T00:46:41.809Z,10.25
2023-03-06T00:49:44.857Z,10.98
2023-03-06T00:52:46.489Z,11.80
2023-03-06T00:55:49.600Z,11.07
2023-03-06T00:58:51.218Z,10.93
2023-03-06T01:01:53.055Z,11.38
2023-03-06T01:04:54.865Z,8.93
2023-03-06T01:07:56.460Z,9.65
2023-03-06T01:10:58.089Z,9.30
2023-03-06T01:13:59.856Z,9.52
2023-03-06T01:17:01.478Z,9.90
2023-03-06T01:20:03.871Z,10.60
2023-03-06T01:23:05.522Z,9.25
2023-03-06T01:26:07.408Z,9.80
2023-03-06T01:29:09.024Z,8.68
2023-03-06T01:32:10.703Z,10.13
2023-03-06T01:35:13.147Z,9.15
2023-03-06T01:38:15.006Z,9.45
2023-03-06T01:41:17.591Z,9.03
2023-03-06T01:44:19.472Z,10.18
2023-03-06T01:47:21.087Z,11.27
2023-03-06T01:50:22.823Z,9.90
2023-03-06T01:53:24.649Z,13.10
2023-03-06T01:56:26.603Z,10.87
2023-03-06T01:59:30.310Z,12.35
2023-03-06T02:02:31.911Z,9.27
2023-03-06T02:05:33.713Z,12.30
2023-03-06T02:08:35.520Z,9.52
2023-03-06T02:11:37.157Z,8.63
2023-03-06T02:14:40.110Z,9.43
2023-03-06T02:17:44.731Z,8.95
2023-03-06T02:20:50.434Z,8.43
2023-03-06T02:24:06.886Z,10.90
2023-03-06T02:27:10.683Z,10.53
2023-03-06T02:30:16.573Z,10.38
2023-03-06T02:33:21.768Z,11.43
2023-03-06T02:36:23.645Z,12.27
2023-03-06T02:39:28.293Z,9.60
2023-03-06T02:42:30.289Z,9.60
2023-03-06T02:45:34.295Z,11.35
2023-03-06T02:48:36.210Z,10.85
2023-03-06T02:51:37.928Z,10.80
2023-03-06T02:54:39.871Z,10.65
2023-03-06T02:57:41.512Z,9.83
2023-03-06T03:00:43.125Z,9.65
2023-03-06T03:03:44.853Z,10.90
2023-03-06T03:06:46.483Z,11.18
2023-03-06T03:09:48.096Z,11.98
2023-03-06T03:12:50.217Z,9.30
2023-03-06T03:16:14.155Z,9.40
2023-03-06T03:19:15.908Z,8.70
2023-03-06T03:22:17.911Z,10.68
2023-03-06T03:25:20.051Z,9.90
2023-03-06T03:28:21.617Z,10.37
2023-03-06T03:31:23.437Z,10.45
2023-03-06T03:34:25.345Z,11.70
2023-03-06T03:37:27.094Z,9.57
2023-03-06T03:40:29.160Z,9.93
2023-03-06T03:43:31.207Z,9.33
2023-03-06T03:46:33.031Z,9.30
2023-03-06T03:49:34.672Z,9.60
2023-03-06T03:52:36.968Z,9.43
2023-03-06T03:55:38.585Z,11.50
2023-03-06T03:58:40.357Z,10.17
2023-03-06T04:01:42.097Z,9.85
2023-03-06T04:04:43.828Z,10.98
2023-03-06T04:07:45.588Z,10.90
2023-03-06T04:10:47.225Z,11.02
2023-03-06T04:13:48.854Z,10.27
2023-03-06T04:16:50.559Z,9.27
2023-03-06T04:19:52.226Z,9.75
2023-03-06T04:22:53.800Z,8.63
2023-03-06T04:25:55.567Z,10.35
2023-03-06T04:28:58.506Z,10.40
2023-03-06T04:32:00.240Z,10.00
2023-03-06T04:35:02.235Z,9.57
2023-03-06T04:38:04.883Z,9.07
2023-03-06T04:41:06.518Z,9.23
2023-03-06T04:44:08.710Z,10.23
2023-03-06T04:47:10.804Z,9.18
2023-03-06T04:50:12.987Z,10.57
2023-03-06T04:53:15.977Z,11.45
2023-03-06T04:56:17.636Z,11.10
2023-03-06T04:59:19.322Z,10.03
2023-03-06T05:02:20.973Z,10.23
2023-03-06T05:05:22.696Z,11.82
2023-03-06T05:08:24.343Z,11.40
2023-03-06T05:11:26.007Z,11.18
2023-03-06T05:14:31.416Z,9.50
2023-03-06T05:17:33.119Z,10.68
2023-03-06T05:20:34.849Z,11.40
2023-03-06T05:23:38.498Z,10.82
2023-03-06T05:26:40.214Z,10.77
2023-03-06T05:29:41.958Z,10.00
2023-03-06T05:32:43.873Z,10.75
2023-03-06T05:35:47.641Z,12.40
2023-03-06T05:38:49.264Z,12.13
2023-03-06T05:41:50.907Z,12.30
2023-03-06T05:44:52.615Z,11.23
2023-03-06T05:47:54.180Z,10.63
2023-03-06T05:50:57.570Z,11.18
2023-03-06T05:53:59.201Z,13.60
2023-03-06T05:57:01.459Z,12.90
2023-03-06T06:00:04.077Z,14.53
2023-03-06T06:03:05.776Z,13.43
2023-03-06T06:06:09.856Z,11.45
2023-03-06T06:09:13.841Z,12.93
2023-03-06T06:12:15.712Z,17.58
2023-03-06T06:15:17.389Z,14.50
2023-03-06T06:18:19.089Z,14.52
2023-03-06T06:21:20.783Z,12.60
2023-03-06T06:24:25.267Z,12.45
2023-03-06T06:27:26.898Z,12.95
2023-03-06T06:30:28.545Z,14.53
2023-03-06T06:33:30.155Z,16.75
2023-03-06T06:36:32.801Z,14.55
2023-03-06T06:39:34.397Z,13.65
2023-03-06T06:42:39.947Z,13.27
2023-03-06T06:45:44.214Z,16.50
2023-03-06T06:48:49.296Z,15.55
2023-03-06T06:51:50.888Z,15.55
2023-03-06T06:54:53.140Z,14.00
2023-03-06T06:57:54.780Z,16.88
2023-03-06T07:00:56.454Z,21.17
2023-03-06T07:03:58.289Z,20.73
2023-03-06T07:07:01.166Z,16.25
2023-03-06T07:10:07.158Z,17.02
2023-03-06T07:13:08.800Z,17.20
2023-03-06T07:16:10.568Z,17.20
2023-03-06T07:19:12.262Z,17.92
2023-03-06T07:22:13.868Z,17.23
2023-03-06T07:25:15.652Z,18.25
2023-03-06T07:28:18.682Z,17.75
2023-03-06T07:31:23.656Z,18.13
2023-03-06T07:34:25.352Z,14.65
2023-03-06T07:37:28.430Z,14.82
2023-03-06T07:40:30.179Z,13.68
2023-03-06T07:43:32.131Z,15.35
2023-03-06T07:46:34.208Z,14.60
2023-03-06T07:49:35.897Z,13.93
2023-03-06T07:52:37.539Z,12.68
2023-03-06T07:55:41.423Z,13.60
2023-03-06T07:58:46.103Z,13.77
2023-03-06T08:01:47.784Z,14.40
2023-03-06T08:04:55.995Z,13.65
2023-03-06T08:07:57.798Z,12.88
2023-03-06T08:10:59.420Z,14.23
2023-03-06T08:14:01.106Z,15.75
2023-03-06T08:17:03.030Z,14.27
2023-03-06T08:20:05.921Z,14.68
2023-03-06T08:23:07.723Z,18.77
2023-03-06T08:26:13.643Z,14.88
2023-03-06T08:29:15.569Z,13.65
2023-03-06T08:32:17.267Z,14.17
2023-03-06T08:35:19.165Z,14.52
2023-03-06T08:38:20.865Z,14.70
2023-03-06T08:41:22.768Z,14.40
2023-03-06T08:44:24.670Z,15.10
2023-03-06T08:47:26.326Z,13.80
2023-03-06T08:50:28.072Z,13.23
2023-03-06T08:53:42.232Z,14.35
2023-03-06T08:56:45.107Z,15.10
2023-03-06T08:59:46.718Z,14.60
2023-03-06T09:02:48.500Z,17.00
2023-03-06T09:05:51.415Z,13.10
2023-03-06T09:08:54.306Z,16.80
2023-03-06T09:11:56.453Z,13.40
2023-03-06T09:15:04.424Z,15.73
2023-03-06T09:18:06.340Z,15.10
2023-03-06T09:21:09.666Z,17.75
2023-03-06T09:24:11.790Z,18.52
2023-03-06T09:27:13.481Z,18.27
2023-03-06T09:30:15.914Z,14.88
2023-03-06T09:33:18.707Z,12.03
2023-03-06T09:36:22.752Z,11.63
2023-03-06T09:39:25.978Z,12.32
2023-03-06T09:42:28.992Z,10.88
2023-03-06T09:45:33.193Z,18.80
2023-03-06T09:49:00.255Z,14.70
2023-03-06T09:52:13.896Z,12.85
2023-03-06T09:55:19.625Z,15.88
2023-03-06T09:58:23.887Z,15.95
2023-03-06T10:01:33.102Z,17.10
2023-03-06T10:04:40.450Z,18.13
2023-03-06T10:07:46.874Z,25.00
2023-03-06T10:10:58.061Z,17.30
2023-03-06T10:14:15.858Z,18.88
2023-03-06T10:17:20.664Z,15.43
2023-03-06T10:20:25.572Z,17.00
2023-03-06T10:23:42.811Z,13.98
2023-03-06T10:27:13.826Z,18.73
2023-03-06T10:30:34.009Z,15.23
2023-03-06T10:33:51.024Z,17.00
2023-03-06T10:36:52.733Z,17.67
2023-03-06T10:40:02.829Z,18.50
2023-03-06T10:43:12.181Z,18.00
2023-03-06T10:46:30.161Z,18.80
2023-03-06T10:49:37.675Z,17.52
2023-03-06T10:52:39.300Z,16.60
2023-03-06T10:55:41.170Z,18.27
2023-03-06T10:58:42.907Z,19.15
2023-03-06T11:01:55.856Z,18.85
2023-03-06T11:04:59.918Z,18.35
2023-03-06T11:08:01.726Z,17.50
2023-03-06T11:11:36.348Z,19.60
2023-03-06T11:14:39.053Z,16.02
2023-03-06T11:17:59.170Z,19.73
2023-03-06T11:21:03.878Z,19.27
2023-03-06T11:24:20.353Z,17.00
2023-03-06T11:27:36.668Z,18.42
2023-03-06T11:30:52.221Z,15.82
2023-03-06T11:34:18.671Z,19.80
2023-03-06T11:37:32.647Z,19.08
2023-03-06T11:40:42.791Z,45.00
2023-03-06T11:43:47.024Z,30.27
2023-03-06T11:46:53.050Z,25.38
2023-03-06T11:50:14.302Z,18.55
2023-03-06T11:53:23.455Z,22.80
2023-03-06T11:56:36.847Z,18.63
2023-03-06T12:00:02.681Z,33.70
2023-03-06T12:03:17.095Z,24.00
2023-03-06T12:06:36.874Z,22.05
2023-03-06T12:09:47.013Z,19.90
2023-03-06T12:13:08.606Z,19.03
2023-03-06T12:16:48.533Z,22.55
2023-03-06T12:20:14.019Z,27.55
2023-03-06T12:23:18.785Z,18.65
2023-03-06T12:26:38.718Z,19.90
2023-03-06T12:29:54.278Z,27.37
2023-03-06T12:33:31.401Z,27.33
2023-03-06T12:36:54.327Z,24.70
2023-03-06T12:40:14.886Z,25.00
2023-03-06T12:43:40.037Z,19.92
2023-03-06T12:46:49.018Z,21.33
2023-03-06T12:49:56.714Z,20.02
2023-03-06T12:53:07.546Z,24.60
2023-03-06T12:56:13.314Z,22.25
2023-03-06T12:59:54.817Z,20.75
2023-03-06T13:03:14.989Z,23.30
2023-03-06T13:06:45.047Z,28.00
2023-03-06T13:10:25.664Z,25.95
2023-03-06T13:13:48.272Z,22.40
2023-03-06T13:16:50.156Z,20.55
2023-03-06T13:20:13.841Z,19.30
2023-03-06T13:23:30.803Z,19.73
2023-03-06T13:26:32.493Z,24.08
2023-03-06T13:29:37.290Z,21.73
2023-03-06T13:32:39.109Z,19.50
2023-03-06T13:35:40.734Z,21.80
2023-03-06T13:38:42.358Z,24.63
2023-03-06T13:41:58.758Z,24.25
2023-03-06T13:45:17.242Z,25.08
2023-03-06T13:48:43.689Z,22.48
2023-03-06T13:52:11.099Z,23.00
2023-03-06T13:55:31.209Z,20.67
2023-03-06T13:59:03.607Z,22.17
2023-03-06T14:02:33.375Z,24.30
2023-03-06T14:05:49.925Z,20.23
2023-03-06T14:08:51.741Z,22.37
2023-03-06T14:12:02.298Z,22.50
2023-03-06T14:15:13.825Z,23.25
2023-03-06T14:18:32.900Z,23.15
2023-03-06T14:21:45.582Z,23.85
2023-03-06T14:25:16.063Z,22.83
2023-03-06T14:28:27.252Z,22.33
2023-03-06T14:31:36.719Z,20.35
2023-03-06T14:34:42.065Z,23.75
2023-03-06T14:37:48.445Z,20.98
2023-03-06T14:40:52.413Z,19.77
2023-03-06T14:44:10.313Z,22.25
2023-03-06T14:47:22.663Z,22.35
2023-03-06T14:50:26.333Z,21.85
2023-03-06T14:53:31.779Z,21.90
2023-03-06T14:56:39.798Z,22.20
2023-03-06T14:59:47.923Z,22.95
2023-03-06T15:02:51.697Z,21.95
2023-03-06T15:05:54.540Z,22.77
2023-03-06T15:09:08.305Z,23.33
2023-03-06T15:12:22.733Z,20.53
2023-03-06T15:15:31.198Z,23.52
2023-03-06T15:18:51.375Z,21.10
2023-03-06T15:21:53.058Z,24.02
2023-03-06T15:25:17.222Z,21.25
2023-03-06T15:28:40.057Z,21.00
2023-03-06T15:31:43.760Z,23.38
2023-03-06T15:34:45.431Z,23.40
2023-03-06T15:37:47.076Z,22.35
2023-03-06T15:40:57.183Z,20.92
2023-03-06T15:44:00.388Z,23.10
2023-03-06T15:47:08.649Z,22.83
2023-03-06T15:50:28.801Z,22.08
2023-03-06T15:53:31.195Z,21.23
2023-03-06T15:56:35.249Z,22.75
2023-03-06T15:59:42.940Z,23.40
2023-03-06T16:02:44.628Z,22.40
2023-03-06T16:05:46.332Z,22.83
2023-03-06T16:08:48.084Z,25.05
2023-03-06T16:11:49.810Z,22.02
2023-03-06T16:14:52.533Z,22.53
2023-03-06T16:17:54.523Z,22.00
2023-03-06T16:20:56.085Z,24.48
2023-03-06T16:23:57.702Z,23.25
2023-03-06T16:27:01.282Z,23.90
2023-03-06T16:30:04.319Z,23.40
2023-03-06T16:33:06.151Z,23.73
2023-03-06T16:36:12.281Z,24.52
2023-03-06T16:39:16.017Z,27.65
2023-03-06T16:42:17.771Z,24.50
2023-03-06T16:45:21.109Z,24.83
2023-03-06T16:48:22.895Z,23.80
2023-03-06T16:51:24.650Z,23.17
2023-03-06T16:54:26.356Z,23.00
2023-03-06T16:57:32.252Z,23.73
2023-03-06T17:00:34.308Z,22.57
2023-03-06T17:03:36.769Z,24.13
2023-03-06T17:06:38.581Z,24.83
2023-03-06T17:09:40.186Z,25.63
2023-03-06T17:12:42.315Z,27.13
2023-03-06T17:15:56.282Z,23.83
2023-03-06T17:18:58.277Z,24.50
2023-03-06T17:21:59.877Z,22.67
2023-03-06T17:25:02.853Z,28.23
2023-03-06T17:28:04.535Z,23.73
2023-03-06T17:31:17.689Z,23.40
2023-03-06T17:34:19.359Z,23.88
2023-03-06T17:37:21.104Z,23.42
2023-03-06T17:40:22.723Z,22.92
2023-03-06T17:43:24.553Z,22.67
2023-03-06T17:46:26.343Z,21.87
2023-03-06T17:49:28.489Z,21.67
2023-03-06T17:52:30.430Z,22.42
2023-03-06T17:55:32.074Z,22.30
2023-03-06T17:58:34.393Z,23.08
2023-03-06T18:01:36.228Z,21.73
2023-03-06T18:04:37.948Z,23.33
2023-03-06T18:07:39.662Z,21.52
2023-03-06T18:10:41.958Z,22.65
2023-03-06T18:13:46.387Z,22.83
2023-03-06T18:16:48.091Z,21.67
2023-03-06T18:19:51.041Z,24.48
2023-03-06T18:22:52.685Z,37.97
2023-03-06T18:26:12.112Z,28.58
2023-03-06T18:29:13.714Z,21.00
2023-03-06T18:32:15.441Z,25.20
2023-03-06T18:35:17.404Z,27.02
2023-03-06T18:38:19.090Z,27.48
2023-03-06T18:41:22.814Z,24.40
2023-03-06T18:44:24.410Z,26.23
2023-03-06T18:47:26.161Z,26.27
2023-03-06T18:50:27.812Z,24.75
2023-03-06T18:53:29.392Z,26.33
2023-03-06T18:56:31.371Z,24.58
2023-03-06T18:59:33.309Z,31.08
2023-03-06T19:02:35.015Z,29.07
2023-03-06T19:05:44.971Z,28.95
2023-03-06T19:08:46.651Z,29.95
2023-03-06T19:11:48.786Z,29.40
2023-03-06T19:14:50.583Z,31.70
2023-03-06T19:17:52.203Z,27.37
2023-03-06T19:20:54.436Z,29.23
2023-03-06T19:23:57.274Z,33.15
2023-03-06T19:26:58.975Z,34.08
2023-03-06T19:30:00.684Z,31.48
2023-03-06T19:33:02.278Z,38.97
2023-03-06T19:36:05.965Z,34.17
2023-03-06T19:39:09.586Z,34.40
2023-03-06T19:42:13.669Z,33.63
2023-03-06T19:45:15.641Z,34.30
2023-03-06T19:48:17.775Z,32.47
2023-03-06T19:51:19.467Z,36.83
2023-03-06T19:54:23.487Z,33.95
2023-03-06T19:57:25.181Z,35.00
2023-03-06T20:00:26.861Z,35.55
2023-03-06T20:03:28.550Z,36.53
2023-03-06T20:06:37.648Z,39.03
2023-03-06T20:09:39.351Z,34.58
2023-03-06T20:12:41.143Z,37.83
2023-03-06T20:15:42.759Z,34.53
2023-03-06T20:18:45.440Z,34.40
2023-03-06T20:21:47.210Z,33.22
2023-03-06T20:24:48.820Z,35.78
2023-03-06T20:27:50.491Z,38.50
2023-03-06T20:30:52.131Z,35.05
2023-03-06T20:33:55.153Z,36.53
2023-03-06T20:36:57.890Z,36.78
2023-03-06T20:40:03.505Z,36.70
2023-03-06T20:43:05.294Z,35.58
2023-03-06T20:46:07.041Z,38.33
2023-03-06T20:49:09.112Z,36.30
2023-03-06T20:52:10.723Z,47.58
2023-03-06T20:55:12.811Z,46.83
2023-03-06T20:58:14.388Z,46.60
2023-03-06T21:01:24.695Z,44.30
2023-03-06T21:04:26.399Z,43.87
2023-03-06T21:07:28.264Z,41.20
2023-03-06T21:10:31.117Z,42.38
2023-03-06T21:13:32.710Z,41.38
2023-03-06T21:16:34.422Z,38.20
2023-03-06T21:19:36.801Z,34.67
2023-03-06T21:22:38.414Z,36.78
2023-03-06T21:25:51.168Z,33.65
2023-03-06T21:28:53.309Z,32.95
2023-03-06T21:31:56.391Z,32.67
2023-03-06T21:34:58.086Z,32.20
2023-03-06T21:37:59.683Z,30.08
2023-03-06T21:41:16.137Z,33.17
2023-03-06T21:44:17.747Z,33.80
2023-03-06T21:47:20.116Z,36.35
2023-03-06T21:50:22.197Z,37.63
2023-03-06T21:53:23.833Z,34.33
2023-03-06T21:56:26.094Z,35.95
2023-03-06T21:59:27.772Z,32.92
2023-03-06T22:02:29.562Z,31.25
2023-03-06T22:05:34.504Z,34.53
2023-03-06T22:08:36.166Z,34.80
2023-03-06T22:11:38.006Z,31.15
2023-03-06T22:14:39.759Z,34.38
2023-03-06T22:17:41.678Z,34.33
2023-03-06T22:20:43.310Z,34.43
2023-03-06T22:23:48.982Z,34.67
2023-03-06T22:26:50.671Z,39.88
2023-03-06T22:29:53.241Z,40.28
2023-03-06T22:32:54.872Z,38.05
2023-03-06T22:36:05.447Z,35.77
2023-03-06T22:39:07.052Z,34.72
2023-03-06T22:42:08.741Z,36.60
2023-03-06T22:45:11.047Z,35.78
2023-03-06T22:48:12.701Z,37.20
2023-03-06T22:51:19.814Z,34.40
2023-03-06T22:54:21.494Z,35.13
2023-03-06T22:57:23.166Z,33.78
2023-03-06T23:00:25.569Z,35.63
2023-03-06T23:03:27.227Z,35.60
2023-03-06T23:06:37.642Z,37.13
2023-03-06T23:09:39.298Z,28.05
2023-03-06T23:12:41.707Z,36.65
2023-03-06T23:15:43.348Z,34.58
2023-03-06T23:18:45.092Z,35.55
2023-03-06T23:21:46.991Z,36.73
2023-03-06T23:24:48.655Z,35.28
2023-03-06T23:27:50.387Z,35.78
2023-03-06T23:30:52.500Z,33.63
2023-03-06T23:33:56.612Z,33.38
2023-03-06T23:36:58.301Z,32.80
2023-03-06T23:39:59.933Z,34.47
2023-03-06T23:43:01.637Z,33.85
2023-03-06T23:46:03.710Z,34.25
2023-03-06T23:49:06.327Z,33.42
2023-03-06T23:52:08.333Z,32.27
2023-03-06T23:55:10.369Z,33.28
2023-03-06T23:58:13.505Z,35.20
